Maningrida, Australia
Current Conditions -  °F | °C
As of 9:00 AM on Saturday 25 Oct 2014 (Local Time) from YPGV Reporting Station
Broken Clouds Broken Clouds  
Wind Chill: 84°   Ceiling: 2700
Heat Index: 86°   Visibility: 6mi
Dew Point: 66°   Wind: 14mph
Humidity: 55%   Direction: 90°E
Pressure: 30"   Gusts: NA
Location:  12.21°S, 134.3°E
Report Text: YPGV 250000Z 09012KT 9999 BKN027 29/19 Q1016
Loading
Personal Weather Stations






























Interactive Weather Map
Tropical Storm Tracking
New forecast layout! Learn more

10-Day Weather Forecast

Advertisements
Track Severe Weather on mobile